createdAt,value
2023-02-17T00:01:20.505Z,6.90
2023-02-17T00:03:49.363Z,6.80
2023-02-17T00:06:20.233Z,6.60
2023-02-17T00:08:49.434Z,6.90
2023-02-17T00:11:18.341Z,6.63
2023-02-17T00:13:46.795Z,7.10
2023-02-17T00:16:18.961Z,7.23
2023-02-17T00:18:47.548Z,7.00
2023-02-17T00:21:17.654Z,6.50
2023-02-17T00:23:46.856Z,6.83
2023-02-17T00:26:15.273Z,6.83
2023-02-17T00:28:44.606Z,7.37
2023-02-17T00:31:17.756Z,6.60
2023-02-17T00:33:46.271Z,6.60
2023-02-17T00:36:18.619Z,6.53
2023-02-17T00:38:48.885Z,6.87
2023-02-17T00:41:17.405Z,6.27
2023-02-17T00:43:45.769Z,6.43
2023-02-17T00:46:14.129Z,6.37
2023-02-17T00:48:43.848Z,6.30
2023-02-17T00:51:13.775Z,6.43
2023-02-17T00:53:42.046Z,6.43
2023-02-17T00:56:10.593Z,5.90
2023-02-17T00:58:39.199Z,6.40
2023-02-17T01:01:07.417Z,5.60
2023-02-17T01:03:35.650Z,6.70
2023-02-17T01:06:10.892Z,6.27
2023-02-17T01:08:39.100Z,6.10
2023-02-17T01:11:07.476Z,6.27
2023-02-17T01:13:35.644Z,5.90
2023-02-17T01:16:04.197Z,5.67
2023-02-17T01:18:32.967Z,5.80
2023-02-17T01:21:01.148Z,6.10
2023-02-17T01:23:30.968Z,6.43
2023-02-17T01:25:59.199Z,6.47
2023-02-17T01:28:27.556Z,6.20
2023-02-17T01:30:55.867Z,5.97
2023-02-17T01:33:24.096Z,6.50
2023-02-17T01:35:52.259Z,5.83
2023-02-17T01:38:20.422Z,6.40
2023-02-17T01:40:51.930Z,6.40
2023-02-17T01:43:23.058Z,5.93
2023-02-17T01:45:53.018Z,6.17
2023-02-17T01:48:23.870Z,6.10
2023-02-17T01:50:56.695Z,6.23
2023-02-17T01:53:30.688Z,6.23
2023-02-17T01:56:00.494Z,6.50
2023-02-17T01:58:29.856Z,5.57
2023-02-17T02:01:01.013Z,6.17
2023-02-17T02:03:32.471Z,6.17
2023-02-17T02:06:03.258Z,6.10
2023-02-17T02:08:40.729Z,6.50
2023-02-17T02:11:10.424Z,6.90
2023-02-17T02:13:38.672Z,6.83
2023-02-17T02:16:14.410Z,6.53
2023-02-17T02:18:50.682Z,6.93
2023-02-17T02:21:58.314Z,6.83
2023-02-17T02:24:36.610Z,6.67
2023-02-17T02:27:32.198Z,6.50
2023-02-17T02:30:27.442Z,6.83
2023-02-17T02:33:07.528Z,6.60
2023-02-17T02:35:45.434Z,6.80
2023-02-17T02:38:19.608Z,6.87
2023-02-17T02:40:51.076Z,6.40
2023-02-17T02:43:19.956Z,6.77
2023-02-17T02:45:48.350Z,6.70
2023-02-17T02:48:17.873Z,6.33
2023-02-17T02:51:01.905Z,5.97
2023-02-17T02:53:43.894Z,5.20
2023-02-17T02:56:21.786Z,5.10
2023-02-17T02:58:57.466Z,4.90
2023-02-17T03:01:38.784Z,5.00
2023-02-17T03:04:14.387Z,4.67
2023-02-17T03:06:49.381Z,5.00
2023-02-17T03:09:22.167Z,5.07
2023-02-17T03:11:51.689Z,5.67
2023-02-17T03:14:22.202Z,5.80
2023-02-17T03:16:53.164Z,5.63
2023-02-17T03:19:26.924Z,5.87
2023-02-17T03:22:00.575Z,5.43
2023-02-17T03:24:29.138Z,6.00
2023-02-17T03:26:57.395Z,6.10
2023-02-17T03:29:25.609Z,5.90
2023-02-17T03:31:53.970Z,6.10
2023-02-17T03:34:22.484Z,6.33
2023-02-17T03:36:51.983Z,6.37
2023-02-17T03:39:20.161Z,6.70
2023-02-17T03:41:50.521Z,6.43
2023-02-17T03:44:19.547Z,6.30
2023-02-17T03:46:48.348Z,7.40
2023-02-17T03:49:16.586Z,6.30
2023-02-17T03:51:45.028Z,6.23
2023-02-17T03:54:14.595Z,5.77
2023-02-17T03:56:42.784Z,5.80
2023-02-17T03:59:10.969Z,5.80
2023-02-17T04:01:39.515Z,5.10
2023-02-17T04:04:11.000Z,5.20
2023-02-17T04:06:39.266Z,5.50
2023-02-17T04:09:07.546Z,5.20
2023-02-17T04:11:37.823Z,5.60
2023-02-17T04:14:06.228Z,5.40
2023-02-17T04:16:34.667Z,5.87
2023-02-17T04:19:02.869Z,6.07
2023-02-17T04:21:31.221Z,6.10
2023-02-17T04:24:01.569Z,5.77
2023-02-17T04:26:30.362Z,5.60
2023-02-17T04:28:59.914Z,6.00
2023-02-17T04:31:28.324Z,6.67
2023-02-17T04:33:56.958Z,6.73
2023-02-17T04:36:25.160Z,7.17
2023-02-17T04:38:53.378Z,7.00
2023-02-17T04:41:21.636Z,6.50
2023-02-17T04:43:49.922Z,7.10
2023-02-17T04:46:19.515Z,6.77
2023-02-17T04:48:47.798Z,6.50
2023-02-17T04:51:16.229Z,6.23
2023-02-17T04:53:44.373Z,6.53
2023-02-17T04:56:12.671Z,6.70
2023-02-17T04:58:41.081Z,6.27
2023-02-17T05:01:10.995Z,6.40
2023-02-17T05:03:40.727Z,6.13
2023-02-17T05:06:09.076Z,6.23
2023-02-17T05:08:37.332Z,6.10
2023-02-17T05:11:05.907Z,6.37
2023-02-17T05:13:34.157Z,6.37
2023-02-17T05:16:02.729Z,6.10
2023-02-17T05:18:30.903Z,6.00
2023-02-17T05:21:00.630Z,5.87
2023-02-17T05:23:28.868Z,5.87
2023-02-17T05:25:57.289Z,6.33
2023-02-17T05:28:25.617Z,6.20
2023-02-17T05:30:53.871Z,6.23
2023-02-17T05:33:22.269Z,6.23
2023-02-17T05:35:50.423Z,6.50
2023-02-17T05:38:19.986Z,6.80
2023-02-17T05:40:48.168Z,6.67
2023-02-17T05:43:16.438Z,6.77
2023-02-17T05:45:44.552Z,6.83
2023-02-17T05:48:12.675Z,6.67
2023-02-17T05:50:41.168Z,6.53
2023-02-17T05:53:09.534Z,6.97
2023-02-17T05:55:39.133Z,6.40
2023-02-17T05:58:07.593Z,6.70
2023-02-17T06:00:35.818Z,6.33
2023-02-17T06:03:04.101Z,12.30
2023-02-17T06:05:32.447Z,38.23
2023-02-17T06:08:00.762Z,11.90
2023-02-17T06:10:28.976Z,10.20
2023-02-17T06:12:58.768Z,7.60
2023-02-17T06:15:27.172Z,6.83
2023-02-17T06:17:55.609Z,6.77
2023-02-17T06:20:23.799Z,6.57
2023-02-17T06:22:52.395Z,6.17
2023-02-17T06:25:20.817Z,7.20
2023-02-17T06:27:49.271Z,6.80
2023-02-17T06:30:18.964Z,6.90
2023-02-17T06:32:47.174Z,6.40
2023-02-17T06:35:15.382Z,6.70
2023-02-17T06:37:43.909Z,6.50
2023-02-17T06:40:13.161Z,6.97
2023-02-17T06:42:41.890Z,6.60
2023-02-17T06:45:10.847Z,6.13
2023-02-17T06:47:40.521Z,6.53
2023-02-17T06:50:12.007Z,6.30
2023-02-17T06:52:40.221Z,6.17
2023-02-17T06:55:10.401Z,7.10
2023-02-17T06:57:39.091Z,6.73
2023-02-17T07:00:08.726Z,5.80
2023-02-17T07:02:40.716Z,5.90
2023-02-17T07:05:09.531Z,5.53
2023-02-17T07:07:37.652Z,5.40
2023-02-17T07:10:07.088Z,5.23
2023-02-17T07:12:35.313Z,5.30
2023-02-17T07:15:04.684Z,5.40
2023-02-17T07:17:33.354Z,5.10
2023-02-17T07:20:03.048Z,5.30
2023-02-17T07:22:31.220Z,4.67
2023-02-17T07:24:59.652Z,4.63
2023-02-17T07:27:27.778Z,4.47
2023-02-17T07:29:56.426Z,4.90
2023-02-17T07:32:24.953Z,4.50
2023-02-17T07:34:53.226Z,4.60
2023-02-17T07:37:22.857Z,4.50
2023-02-17T07:39:52.373Z,4.03
2023-02-17T07:42:21.002Z,4.20
2023-02-17T07:44:49.336Z,4.17
2023-02-17T07:47:17.617Z,4.33
2023-02-17T07:49:46.010Z,4.37
2023-02-17T07:52:14.327Z,4.83
2023-02-17T07:54:44.092Z,4.40
2023-02-17T07:57:12.313Z,4.67
2023-02-17T07:59:40.510Z,4.70
2023-02-17T08:02:08.994Z,4.50
2023-02-17T08:04:37.424Z,4.67
2023-02-17T08:07:05.657Z,4.47
2023-02-17T08:09:51.347Z,4.40
2023-02-17T08:12:39.573Z,4.87
2023-02-17T08:15:10.214Z,4.60
2023-02-17T08:17:38.561Z,4.80
2023-02-17T08:20:09.385Z,4.73
2023-02-17T08:22:38.002Z,4.47
2023-02-17T08:25:07.039Z,4.70
2023-02-17T08:27:36.837Z,4.80
2023-02-17T08:30:06.452Z,4.73
2023-02-17T08:32:34.770Z,5.03
2023-02-17T08:35:03.337Z,4.67
2023-02-17T08:37:32.143Z,4.60
2023-02-17T08:40:00.545Z,4.00
2023-02-17T08:42:29.498Z,5.40
2023-02-17T08:44:59.356Z,5.00
2023-02-17T08:47:27.950Z,4.77
2023-02-17T08:49:56.107Z,4.90
2023-02-17T08:52:24.328Z,4.80
2023-02-17T08:54:52.805Z,4.80
2023-02-17T08:57:22.470Z,5.13
2023-02-17T08:59:51.268Z,5.10
2023-02-17T09:02:21.265Z,5.30
2023-02-17T09:04:49.756Z,5.47
2023-02-17T09:07:18.484Z,5.60
2023-02-17T09:09:46.681Z,5.53
2023-02-17T09:12:14.968Z,5.57
2023-02-17T09:14:43.424Z,5.70
2023-02-17T09:17:11.750Z,6.03
2023-02-17T09:19:41.915Z,5.93
2023-02-17T09:22:15.464Z,6.17
2023-02-17T09:24:48.651Z,6.47
2023-02-17T09:27:16.940Z,5.67
2023-02-17T09:29:45.306Z,5.63
2023-02-17T09:32:13.519Z,5.77
2023-02-17T09:34:49.613Z,5.87
2023-02-17T09:37:18.674Z,6.00
2023-02-17T09:39:47.503Z,5.70
2023-02-17T09:42:20.462Z,6.07
2023-02-17T09:44:52.352Z,5.90
2023-02-17T09:47:24.516Z,6.40
2023-02-17T09:49:58.136Z,6.20
2023-02-17T09:52:31.685Z,5.90
2023-02-17T09:55:05.188Z,6.00
2023-02-17T09:57:37.104Z,5.30
2023-02-17T10:00:10.638Z,5.37
2023-02-17T10:02:48.172Z,5.77
2023-02-17T10:05:23.369Z,5.10
2023-02-17T10:07:57.923Z,5.87
2023-02-17T10:10:31.030Z,5.00
2023-02-17T10:13:03.810Z,5.23
2023-02-17T10:15:40.174Z,5.27
2023-02-17T10:18:14.007Z,5.10
2023-02-17T10:20:51.827Z,4.50
2023-02-17T10:23:22.424Z,4.90
2023-02-17T10:26:10.001Z,4.97
2023-02-17T10:28:51.059Z,5.10
2023-02-17T10:31:31.227Z,4.73
2023-02-17T10:34:04.327Z,4.27
2023-02-17T10:36:48.064Z,4.53
2023-02-17T10:39:24.193Z,4.77
2023-02-17T10:41:53.784Z,4.13
2023-02-17T10:44:25.232Z,4.80
2023-02-17T10:46:55.142Z,4.63
2023-02-17T10:49:28.230Z,4.77
2023-02-17T10:52:03.342Z,4.70
2023-02-17T10:54:38.454Z,4.80
2023-02-17T10:57:11.995Z,4.73
2023-02-17T10:59:42.149Z,4.87
2023-02-17T11:02:20.729Z,4.30
2023-02-17T11:04:51.542Z,4.23
2023-02-17T11:07:28.091Z,4.07
2023-02-17T11:10:02.747Z,4.53
2023-02-17T11:12:34.846Z,4.33
2023-02-17T11:15:06.641Z,4.30
2023-02-17T11:17:37.997Z,4.47
2023-02-17T11:20:09.416Z,4.43
2023-02-17T11:22:41.724Z,4.90
2023-02-17T11:25:23.864Z,5.03
2023-02-17T11:27:54.109Z,5.00
2023-02-17T11:30:23.189Z,5.33
2023-02-17T11:32:51.987Z,5.27
2023-02-17T11:35:26.442Z,4.80
2023-02-17T11:38:02.814Z,5.47
2023-02-17T11:40:33.324Z,4.90
2023-02-17T11:43:02.711Z,5.27
2023-02-17T11:45:37.451Z,5.03
2023-02-17T11:48:20.056Z,5.37
2023-02-17T11:50:57.006Z,5.10
2023-02-17T11:53:35.140Z,4.83
2023-02-17T11:56:14.215Z,4.97
2023-02-17T11:58:56.451Z,5.17
2023-02-17T12:01:49.981Z,4.27
2023-02-17T12:04:37.871Z,4.70
2023-02-17T12:07:25.786Z,5.10
2023-02-17T12:10:05.127Z,5.33
2023-02-17T12:12:47.656Z,5.37
2023-02-17T12:15:30.371Z,5.50
2023-02-17T12:18:10.985Z,5.13
2023-02-17T12:20:49.770Z,5.30
2023-02-17T12:23:32.717Z,5.20
2023-02-17T12:26:09.661Z,5.33
2023-02-17T12:28:59.222Z,5.80
2023-02-17T12:31:46.653Z,5.57
2023-02-17T12:34:22.474Z,5.70
2023-02-17T12:36:53.193Z,5.20
2023-02-17T12:39:25.585Z,5.20
2023-02-17T12:41:59.879Z,6.17
2023-02-17T12:44:31.211Z,5.00
2023-02-17T12:47:04.820Z,5.60
2023-02-17T12:49:40.192Z,4.90
2023-02-17T12:52:16.678Z,4.70
2023-02-17T12:54:50.653Z,4.93
2023-02-17T12:57:23.424Z,5.07
2023-02-17T12:59:54.003Z,5.20
2023-02-17T13:02:24.249Z,4.73
2023-02-17T13:04:54.748Z,4.90
2023-02-17T13:07:46.898Z,4.70
2023-02-17T13:10:33.498Z,4.50
2023-02-17T13:13:07.224Z,3.83
2023-02-17T13:15:42.258Z,4.60
2023-02-17T13:18:15.714Z,4.30
2023-02-17T13:20:56.734Z,4.60
2023-02-17T13:23:36.309Z,4.63
2023-02-17T13:26:29.996Z,4.53
2023-02-17T13:29:20.713Z,4.77
2023-02-17T13:31:53.429Z,5.33
2023-02-17T13:34:31.185Z,5.23
2023-02-17T13:37:03.195Z,5.37
2023-02-17T13:39:34.966Z,5.17
2023-02-17T13:42:04.785Z,5.30
2023-02-17T13:44:40.262Z,5.13
2023-02-17T13:47:16.021Z,4.93
2023-02-17T13:49:52.444Z,5.30
2023-02-17T13:52:24.417Z,5.47
2023-02-17T13:54:54.700Z,5.07
2023-02-17T13:57:28.936Z,4.77
2023-02-17T14:00:09.942Z,5.20
2023-02-17T14:02:48.116Z,7.10
2023-02-17T14:05:22.300Z,5.20
2023-02-17T14:07:51.217Z,5.20
2023-02-17T14:10:21.294Z,5.07
2023-02-17T14:12:50.268Z,4.60
2023-02-17T14:15:21.944Z,4.53
2023-02-17T14:17:50.637Z,5.00
2023-02-17T14:20:34.156Z,4.93
2023-02-17T14:23:05.628Z,4.53
2023-02-17T14:25:36.457Z,4.90
2023-02-17T14:28:04.926Z,4.70
2023-02-17T14:30:36.500Z,4.90
2023-02-17T14:33:10.162Z,4.90
2023-02-17T14:35:39.523Z,5.63
2023-02-17T14:38:10.746Z,4.93
2023-02-17T14:40:40.331Z,5.10
2023-02-17T14:43:08.994Z,5.07
2023-02-17T14:45:38.868Z,4.63
2023-02-17T14:48:07.149Z,4.78
2023-02-17T14:50:42.201Z,4.72
2023-02-17T14:53:14.828Z,4.83
2023-02-17T14:55:47.814Z,5.18
2023-02-17T14:58:20.886Z,4.88
2023-02-17T15:00:51.604Z,4.38
2023-02-17T15:03:19.937Z,4.53
2023-02-17T15:05:48.700Z,4.40
2023-02-17T15:08:19.853Z,4.43
2023-02-17T15:10:48.668Z,4.40
2023-02-17T15:13:19.215Z,8.07
2023-02-17T15:15:49.572Z,8.07
2023-02-17T15:18:20.839Z,5.20
2023-02-17T15:20:51.215Z,4.20
2023-02-17T15:23:22.960Z,3.93
2023-02-17T15:25:53.394Z,3.90
2023-02-17T15:28:22.551Z,4.10
2023-02-17T15:30:54.458Z,3.90
2023-02-17T15:33:25.448Z,3.70
2023-02-17T15:35:55.485Z,3.70
2023-02-17T15:38:25.087Z,3.67
2023-02-17T15:40:56.762Z,3.43
2023-02-17T15:46:14.145Z,4.03
2023-02-17T15:48:45.521Z,3.70
2023-02-17T15:51:15.177Z,4.13
2023-02-17T15:53:44.016Z,4.00
2023-02-17T15:56:20.586Z,5.10
2023-02-17T15:58:50.820Z,5.20
2023-02-17T16:01:28.396Z,4.03
2023-02-17T16:03:58.852Z,4.00
2023-02-17T16:06:28.286Z,5.47
2023-02-17T16:08:58.826Z,6.03
2023-02-17T16:11:28.712Z,5.30
2023-02-17T16:13:57.420Z,4.77
2023-02-17T16:16:29.599Z,4.60
2023-02-17T16:18:59.349Z,5.00
2023-02-17T16:21:27.595Z,4.10
2023-02-17T16:23:59.802Z,4.50
2023-02-17T16:26:33.615Z,3.47
2023-02-17T16:29:03.479Z,3.50
2023-02-17T16:31:35.778Z,3.50
2023-02-17T16:34:05.391Z,3.33
2023-02-17T16:36:36.471Z,3.00
2023-02-17T16:39:11.974Z,2.87
2023-02-17T16:41:40.610Z,3.20
2023-02-17T16:44:09.109Z,3.30
2023-02-17T16:46:38.344Z,3.77
2023-02-17T16:49:18.965Z,3.90
2023-02-17T16:51:47.293Z,3.30
2023-02-17T16:54:17.849Z,3.33
2023-02-17T16:56:48.468Z,3.20
2023-02-17T16:59:18.627Z,3.50
2023-02-17T17:01:47.390Z,3.03
2023-02-17T17:04:17.399Z,3.60
2023-02-17T17:06:48.190Z,4.10
2023-02-17T17:09:17.653Z,3.30
2023-02-17T17:11:46.243Z,2.70
2023-02-17T17:14:14.835Z,3.03
2023-02-17T17:16:46.090Z,3.07
2023-02-17T17:19:16.573Z,3.20
2023-02-17T17:21:44.809Z,2.77
2023-02-17T17:24:13.093Z,3.20
2023-02-17T17:26:45.258Z,2.70
2023-02-17T17:29:15.912Z,2.50
2023-02-17T17:31:44.801Z,3.10
2023-02-17T17:34:13.265Z,3.00
2023-02-17T17:36:44.930Z,2.90
2023-02-17T17:39:16.669Z,3.13
2023-02-17T17:41:45.131Z,3.00
2023-02-17T17:44:13.332Z,3.13
2023-02-17T17:46:42.135Z,3.37
2023-02-17T17:49:13.402Z,3.30
2023-02-17T17:51:43.322Z,3.10
2023-02-17T17:54:11.873Z,2.87
2023-02-17T17:56:42.887Z,3.13
2023-02-17T17:59:12.092Z,3.37
2023-02-17T18:01:40.429Z,3.40
2023-02-17T18:04:09.378Z,3.47
2023-02-17T18:06:41.677Z,3.60
2023-02-17T18:09:30.265Z,3.50
2023-02-17T18:12:02.774Z,3.90
2023-02-17T18:14:32.241Z,4.17
2023-02-17T18:17:00.741Z,4.37
2023-02-17T18:19:31.617Z,3.97
2023-02-17T18:21:59.951Z,3.97
2023-02-17T18:24:29.577Z,4.03
2023-02-17T18:26:57.843Z,4.10
2023-02-17T18:29:26.411Z,4.60
2023-02-17T18:31:54.930Z,4.40
2023-02-17T18:34:23.326Z,4.40
2023-02-17T18:36:51.974Z,4.20
2023-02-17T18:39:20.237Z,4.30
2023-02-17T18:41:50.050Z,4.40
2023-02-17T18:44:18.955Z,4.70
2023-02-17T18:46:47.253Z,4.30
2023-02-17T18:49:15.673Z,4.10
2023-02-17T18:51:44.163Z,4.20
2023-02-17T18:54:13.084Z,4.13
2023-02-17T18:56:41.399Z,4.27
2023-02-17T18:59:11.136Z,4.07
2023-02-17T19:01:41.075Z,4.10
2023-02-17T19:04:10.206Z,4.67
2023-02-17T19:06:38.372Z,4.17
2023-02-17T19:09:07.130Z,4.10
2023-02-17T19:11:35.978Z,4.10
2023-02-17T19:14:05.167Z,3.73
2023-02-17T19:16:34.797Z,4.30
2023-02-17T19:19:03.297Z,4.43
2023-02-17T19:21:31.850Z,4.30
2023-02-17T19:24:00.826Z,4.30
2023-02-17T19:26:29.017Z,4.20
2023-02-17T19:28:57.464Z,3.97
2023-02-17T19:31:25.816Z,4.57
2023-02-17T19:33:55.474Z,4.10
2023-02-17T19:36:24.191Z,4.30
2023-02-17T19:38:52.745Z,4.50
2023-02-17T19:41:21.373Z,4.07
2023-02-17T19:43:50.893Z,4.23
2023-02-17T19:46:22.884Z,4.17
2023-02-17T19:48:51.346Z,4.60
2023-02-17T19:51:21.124Z,4.83
2023-02-17T19:53:49.651Z,4.50
2023-02-17T19:56:20.316Z,4.40
2023-02-17T19:58:49.148Z,4.10
2023-02-17T20:01:19.803Z,4.20
2023-02-17T20:03:48.465Z,4.30
2023-02-17T20:06:19.226Z,4.20
2023-02-17T20:08:52.541Z,4.40
2023-02-17T20:11:20.855Z,4.43
2023-02-17T20:13:49.149Z,4.50
2023-02-17T20:16:18.632Z,4.83
2023-02-17T20:18:49.903Z,4.20
2023-02-17T20:21:21.398Z,4.20
2023-02-17T20:23:51.227Z,4.27
2023-02-17T20:26:21.783Z,4.20
2023-02-17T20:28:51.019Z,4.20
2023-02-17T20:31:19.664Z,4.13
2023-02-17T20:33:48.751Z,4.33
2023-02-17T20:36:17.474Z,3.90
2023-02-17T20:38:46.238Z,3.97
2023-02-17T20:41:18.916Z,3.70
2023-02-17T20:43:47.369Z,3.60
2023-02-17T20:46:20.897Z,4.03
2023-02-17T20:48:49.185Z,3.67
2023-02-17T20:51:17.541Z,3.20
2023-02-17T20:53:46.509Z,3.47
2023-02-17T20:56:19.256Z,3.40
2023-02-17T20:58:48.418Z,3.30
2023-02-17T21:01:17.849Z,3.83
2023-02-17T21:03:47.053Z,4.20
2023-02-17T21:06:22.170Z,4.73
2023-02-17T21:08:53.304Z,4.80
2023-02-17T21:11:23.600Z,4.30
2023-02-17T21:13:51.939Z,4.57
2023-02-17T21:16:23.070Z,4.80
2023-02-17T21:18:51.880Z,5.07
2023-02-17T21:21:20.903Z,4.80
2023-02-17T21:23:49.261Z,4.37
2023-02-17T21:26:18.511Z,5.67
2023-02-17T21:28:48.946Z,5.93
2023-02-17T21:31:17.628Z,5.47
2023-02-17T21:33:46.751Z,4.87
2023-02-17T21:36:17.741Z,4.80
2023-02-17T21:38:46.685Z,4.20
2023-02-17T21:41:16.678Z,3.90
2023-02-17T21:44:03.949Z,4.00
2023-02-17T21:46:33.204Z,4.40
2023-02-17T21:49:02.531Z,3.87
2023-02-17T21:51:31.439Z,3.80
2023-02-17T21:54:00.242Z,3.70
2023-02-17T21:56:29.288Z,3.63
2023-02-17T21:58:58.748Z,3.27
2023-02-17T22:01:28.301Z,3.50
2023-02-17T22:03:57.673Z,3.40
2023-02-17T22:06:28.583Z,3.40
2023-02-17T22:08:57.333Z,3.20
2023-02-17T22:11:27.486Z,2.80
2023-02-17T22:13:56.789Z,2.93
2023-02-17T22:16:27.363Z,2.90
2023-02-17T22:18:55.574Z,2.80
2023-02-17T22:21:23.915Z,3.00
2023-02-17T22:23:52.103Z,3.27
2023-02-17T22:26:22.379Z,3.07
2023-02-17T22:28:50.779Z,3.57
2023-02-17T22:31:21.456Z,3.20
2023-02-17T22:33:51.388Z,3.10
2023-02-17T22:36:22.692Z,3.50
2023-02-17T22:38:51.286Z,3.07
2023-02-17T22:41:21.144Z,3.40
2023-02-17T22:43:50.777Z,3.37
2023-02-17T22:46:21.775Z,3.47
2023-02-17T22:48:52.935Z,3.80
2023-02-17T22:51:23.647Z,4.23
2023-02-17T22:53:51.868Z,3.70
2023-02-17T22:56:20.547Z,4.00
2023-02-17T22:58:50.469Z,3.70
2023-02-17T23:01:21.699Z,4.17
2023-02-17T23:03:54.458Z,3.47
2023-02-17T23:06:26.518Z,3.80
2023-02-17T23:08:55.572Z,4.20
2023-02-17T23:11:39.998Z,3.93
2023-02-17T23:14:09.274Z,3.70
2023-02-17T23:16:38.358Z,3.77
2023-02-17T23:19:09.584Z,3.97
2023-02-17T23:21:38.296Z,3.70
2023-02-17T23:24:07.091Z,3.87
2023-02-17T23:26:35.420Z,3.63
2023-02-17T23:29:03.838Z,3.90
2023-02-17T23:31:32.755Z,3.93
2023-02-17T23:34:01.504Z,4.17
2023-02-17T23:36:31.304Z,3.90
2023-02-17T23:38:59.959Z,3.90
2023-02-17T23:41:28.813Z,4.27
2023-02-17T23:43:57.156Z,4.40
2023-02-17T23:46:25.437Z,3.80
2023-02-17T23:48:53.798Z,4.40
2023-02-17T23:51:22.085Z,4.30
2023-02-17T23:53:51.817Z,4.27
2023-02-17T23:56:24.160Z,4.50
2023-02-17T23:58:52.547Z,4.33
